sensor_id;sensor_type;location;lat;lon;timestamp;temperature;humidity
5683;DHT22;2864;49.220;8.654;2023-07-20T00:01:15;18.40;71.10
5683;DHT22;2864;49.220;8.654;2023-07-20T00:03:41;18.30;71.60
5683;DHT22;2864;49.220;8.654;2023-07-20T00:06:07;18.30;71.90
5683;DHT22;2864;49.220;8.654;2023-07-20T00:08:32;18.20;72.10
5683;DHT22;2864;49.220;8.654;2023-07-20T00:10:58;18.20;72.90
5683;DHT22;2864;49.220;8.654;2023-07-20T00:13:24;18.10;72.40
5683;DHT22;2864;49.220;8.654;2023-07-20T00:15:50;18.00;72.60
5683;DHT22;2864;49.220;8.654;2023-07-20T00:18:16;18.10;72.80
5683;DHT22;2864;49.220;8.654;2023-07-20T00:20:41;18.00;72.70
5683;DHT22;2864;49.220;8.654;2023-07-20T00:23:07;18.00;73.30
5683;DHT22;2864;49.220;8.654;2023-07-20T00:25:32;18.20;73.90
5683;DHT22;2864;49.220;8.654;2023-07-20T00:27:59;18.00;73.90
5683;DHT22;2864;49.220;8.654;2023-07-20T00:30:24;17.70;74.00
5683;DHT22;2864;49.220;8.654;2023-07-20T00:32:50;17.60;74.10
5683;DHT22;2864;49.220;8.654;2023-07-20T00:35:15;17.60;74.50
5683;DHT22;2864;49.220;8.654;2023-07-20T00:37:41;17.50;75.00
5683;DHT22;2864;49.220;8.654;2023-07-20T00:40:06;17.30;76.40
5683;DHT22;2864;49.220;8.654;2023-07-20T00:42:35;17.20;76.10
5683;DHT22;2864;49.220;8.654;2023-07-20T00:45:01;17.10;76.40
5683;DHT22;2864;49.220;8.654;2023-07-20T00:47:27;17.10;76.80
5683;DHT22;2864;49.220;8.654;2023-07-20T00:49:53;17.00;76.90
5683;DHT22;2864;49.220;8.654;2023-07-20T00:52:21;16.90;77.70
5683;DHT22;2864;49.220;8.654;2023-07-20T00:54:47;17.00;77.80
5683;DHT22;2864;49.220;8.654;2023-07-20T00:57:15;16.90;78.30
5683;DHT22;2864;49.220;8.654;2023-07-20T00:59:41;16.90;79.30
5683;DHT22;2864;49.220;8.654;2023-07-20T01:02:07;16.80;79.30
5683;DHT22;2864;49.220;8.654;2023-07-20T01:04:33;16.70;79.80
5683;DHT22;2864;49.220;8.654;2023-07-20T01:09:48;16.70;80.80
5683;DHT22;2864;49.220;8.654;2023-07-20T01:12:27;16.70;80.80
5683;DHT22;2864;49.220;8.654;2023-07-20T01:14:55;16.60;81.10
5683;DHT22;2864;49.220;8.654;2023-07-20T01:17:21;18.10;83.70
5683;DHT22;2864;49.220;8.654;2023-07-20T01:19:47;16.90;80.80
5683;DHT22;2864;49.220;8.654;2023-07-20T01:22:38;17.00;80.80
5683;DHT22;2864;49.220;8.654;2023-07-20T01:33:38;17.10;80.40
5683;DHT22;2864;49.220;8.654;2023-07-20T01:36:05;17.10;81.00
5683;DHT22;2864;49.220;8.654;2023-07-20T01:38:31;17.00;81.00
5683;DHT22;2864;49.220;8.654;2023-07-20T01:40:57;16.90;81.60
5683;DHT22;2864;49.220;8.654;2023-07-20T01:43:23;17.00;82.00
5683;DHT22;2864;49.220;8.654;2023-07-20T01:45:49;16.90;81.60
5683;DHT22;2864;49.220;8.654;2023-07-20T01:48:14;16.90;82.30
5683;DHT22;2864;49.220;8.654;2023-07-20T01:50:40;16.80;82.70
5683;DHT22;2864;49.220;8.654;2023-07-20T01:53:05;16.80;82.80
5683;DHT22;2864;49.220;8.654;2023-07-20T01:55:31;16.80;83.30
5683;DHT22;2864;49.220;8.654;2023-07-20T01:57:56;16.70;83.60
5683;DHT22;2864;49.220;8.654;2023-07-20T02:00:23;16.50;84.30
5683;DHT22;2864;49.220;8.654;2023-07-20T02:02:50;16.40;85.40
5683;DHT22;2864;49.220;8.654;2023-07-20T02:05:16;16.20;86.60
5683;DHT22;2864;49.220;8.654;2023-07-20T02:07:42;16.10;87.50
5683;DHT22;2864;49.220;8.654;2023-07-20T02:10:08;16.00;88.90
5683;DHT22;2864;49.220;8.654;2023-07-20T02:12:34;15.80;89.80
5683;DHT22;2864;49.220;8.654;2023-07-20T02:15:00;15.80;90.50
5683;DHT22;2864;49.220;8.654;2023-07-20T02:17:26;15.70;90.90
5683;DHT22;2864;49.220;8.654;2023-07-20T02:19:55;15.70;91.70
5683;DHT22;2864;49.220;8.654;2023-07-20T02:22:21;15.50;92.80
5683;DHT22;2864;49.220;8.654;2023-07-20T02:24:47;15.40;94.00
5683;DHT22;2864;49.220;8.654;2023-07-20T02:27:13;15.30;94.80
5683;DHT22;2864;49.220;8.654;2023-07-20T02:29:40;16.50;96.60
5683;DHT22;2864;49.220;8.654;2023-07-20T02:32:06;15.10;97.10
5683;DHT22;2864;49.220;8.654;2023-07-20T02:34:32;15.00;98.30
5683;DHT22;2864;49.220;8.654;2023-07-20T02:36:57;14.90;98.90
5683;DHT22;2864;49.220;8.654;2023-07-20T02:39:24;14.80;99.90
5683;DHT22;2864;49.220;8.654;2023-07-20T02:41:49;14.80;99.90
5683;DHT22;2864;49.220;8.654;2023-07-20T02:44:15;14.80;99.90
5683;DHT22;2864;49.220;8.654;2023-07-20T02:46:41;14.70;99.90
5683;DHT22;2864;49.220;8.654;2023-07-20T02:49:06;14.70;99.90
5683;DHT22;2864;49.220;8.654;2023-07-20T02:51:32;14.70;99.90
5683;DHT22;2864;49.220;8.654;2023-07-20T02:53:58;14.70;99.90
5683;DHT22;2864;49.220;8.654;2023-07-20T02:56:24;14.60;99.90
5683;DHT22;2864;49.220;8.654;2023-07-20T02:58:49;14.60;99.90
5683;DHT22;2864;49.220;8.654;2023-07-20T03:01:15;14.60;99.90
5683;DHT22;2864;49.220;8.654;2023-07-20T03:03:41;14.60;99.90
5683;DHT22;2864;49.220;8.654;2023-07-20T03:06:12;14.60;99.90
5683;DHT22;2864;49.220;8.654;2023-07-20T03:08:38;14.60;99.90
5683;DHT22;2864;49.220;8.654;2023-07-20T03:11:03;14.60;99.90
5683;DHT22;2864;49.220;8.654;2023-07-20T03:13:29;14.60;99.90
5683;DHT22;2864;49.220;8.654;2023-07-20T03:15:55;14.60;99.90
5683;DHT22;2864;49.220;8.654;2023-07-20T03:18:20;14.60;99.90
5683;DHT22;2864;49.220;8.654;2023-07-20T03:20:46;14.60;99.90
5683;DHT22;2864;49.220;8.654;2023-07-20T03:23:11;15.60;99.90
5683;DHT22;2864;49.220;8.654;2023-07-20T03:25:37;14.50;99.90
5683;DHT22;2864;49.220;8.654;2023-07-20T03:28:04;14.50;99.90
5683;DHT22;2864;49.220;8.654;2023-07-20T03:30:29;14.50;99.90
5683;DHT22;2864;49.220;8.654;2023-07-20T03:32:55;14.40;99.90
5683;DHT22;2864;49.220;8.654;2023-07-20T03:35:20;14.40;99.90
5683;DHT22;2864;49.220;8.654;2023-07-20T03:37:46;14.40;99.90
5683;DHT22;2864;49.220;8.654;2023-07-20T03:40:11;14.40;99.90
5683;DHT22;2864;49.220;8.654;2023-07-20T03:42:37;14.50;99.90
5683;DHT22;2864;49.220;8.654;2023-07-20T03:45:04;14.50;99.90
5683;DHT22;2864;49.220;8.654;2023-07-20T03:47:30;14.60;99.90
5683;DHT22;2864;49.220;8.654;2023-07-20T03:49:55;14.90;99.90
5683;DHT22;2864;49.220;8.654;2023-07-20T03:52:21;15.20;99.90
5683;DHT22;2864;49.220;8.654;2023-07-20T03:54:46;15.30;99.90
5683;DHT22;2864;49.220;8.654;2023-07-20T03:57:12;15.40;99.90
5683;DHT22;2864;49.220;8.654;2023-07-20T03:59:39;15.40;99.90
5683;DHT22;2864;49.220;8.654;2023-07-20T04:02:05;15.50;99.90
5683;DHT22;2864;49.220;8.654;2023-07-20T04:04:31;15.60;99.90
5683;DHT22;2864;49.220;8.654;2023-07-20T04:06:56;15.60;99.90
5683;DHT22;2864;49.220;8.654;2023-07-20T04:09:22;15.60;99.90
5683;DHT22;2864;49.220;8.654;2023-07-20T04:11:47;15.60;99.90
5683;DHT22;2864;49.220;8.654;2023-07-20T04:14:13;16.80;99.90
5683;DHT22;2864;49.220;8.654;2023-07-20T04:16:38;15.60;99.90
5683;DHT22;2864;49.220;8.654;2023-07-20T04:19:04;15.70;99.90
5683;DHT22;2864;49.220;8.654;2023-07-20T04:21:29;15.80;99.90
5683;DHT22;2864;49.220;8.654;2023-07-20T04:23:55;15.90;99.90
5683;DHT22;2864;49.220;8.654;2023-07-20T04:26:22;15.90;99.90
5683;DHT22;2864;49.220;8.654;2023-07-20T04:28:47;16.00;99.80
5683;DHT22;2864;49.220;8.654;2023-07-20T04:31:15;16.10;99.50
5683;DHT22;2864;49.220;8.654;2023-07-20T04:33:40;16.10;99.20
5683;DHT22;2864;49.220;8.654;2023-07-20T04:36:07;16.20;98.90
5683;DHT22;2864;49.220;8.654;2023-07-20T04:38:32;16.20;98.70
5683;DHT22;2864;49.220;8.654;2023-07-20T04:40:58;16.30;98.70
5683;DHT22;2864;49.220;8.654;2023-07-20T04:43:24;16.30;98.40
5683;DHT22;2864;49.220;8.654;2023-07-20T04:45:49;16.40;98.30
5683;DHT22;2864;49.220;8.654;2023-07-20T04:48:16;16.40;98.00
5683;DHT22;2864;49.220;8.654;2023-07-20T04:50:43;16.50;98.00
5683;DHT22;2864;49.220;8.654;2023-07-20T04:53:10;16.70;97.90
5683;DHT22;2864;49.220;8.654;2023-07-20T04:55:37;16.70;97.40
5683;DHT22;2864;49.220;8.654;2023-07-20T04:58:03;16.80;97.10
5683;DHT22;2864;49.220;8.654;2023-07-20T05:00:30;16.90;97.30
5683;DHT22;2864;49.220;8.654;2023-07-20T05:02:56;16.90;96.90
5683;DHT22;2864;49.220;8.654;2023-07-20T05:05:22;16.90;96.60
5683;DHT22;2864;49.220;8.654;2023-07-20T05:07:47;16.90;96.30
5683;DHT22;2864;49.220;8.654;2023-07-20T05:10:13;17.00;96.40
5683;DHT22;2864;49.220;8.654;2023-07-20T05:12:39;17.00;96.20
5683;DHT22;2864;49.220;8.654;2023-07-20T05:15:04;17.20;96.30
5683;DHT22;2864;49.220;8.654;2023-07-20T05:17:30;17.30;96.40
5683;DHT22;2864;49.220;8.654;2023-07-20T05:19:56;17.40;96.60
5683;DHT22;2864;49.220;8.654;2023-07-20T05:22:21;17.50;96.40
5683;DHT22;2864;49.220;8.654;2023-07-20T05:24:47;17.60;96.10
5683;DHT22;2864;49.220;8.654;2023-07-20T05:27:12;17.70;95.60
5683;DHT22;2864;49.220;8.654;2023-07-20T05:29:42;17.70;95.30
5683;DHT22;2864;49.220;8.654;2023-07-20T05:32:08;17.80;95.10
5683;DHT22;2864;49.220;8.654;2023-07-20T05:34:35;17.90;94.70
5683;DHT22;2864;49.220;8.654;2023-07-20T05:37:00;18.00;94.60
5683;DHT22;2864;49.220;8.654;2023-07-20T05:39:26;17.90;94.40
5683;DHT22;2864;49.220;8.654;2023-07-20T05:41:51;17.90;94.50
5683;DHT22;2864;49.220;8.654;2023-07-20T05:44:17;17.90;94.30
5683;DHT22;2864;49.220;8.654;2023-07-20T05:46:42;18.10;94.40
5683;DHT22;2864;49.220;8.654;2023-07-20T05:49:08;18.10;94.20
5683;DHT22;2864;49.220;8.654;2023-07-20T05:51:33;18.30;94.30
5683;DHT22;2864;49.220;8.654;2023-07-20T05:53:59;18.40;94.00
5683;DHT22;2864;49.220;8.654;2023-07-20T05:56:25;18.50;93.70
5683;DHT22;2864;49.220;8.654;2023-07-20T05:58:50;18.50;93.20
5683;DHT22;2864;49.220;8.654;2023-07-20T06:01:16;18.60;93.00
5683;DHT22;2864;49.220;8.654;2023-07-20T06:03:43;18.90;92.60
5683;DHT22;2864;49.220;8.654;2023-07-20T06:06:09;19.10;91.90
5683;DHT22;2864;49.220;8.654;2023-07-20T06:08:37;19.20;91.80
5683;DHT22;2864;49.220;8.654;2023-07-20T06:11:03;19.20;91.80
5683;DHT22;2864;49.220;8.654;2023-07-20T06:13:28;19.40;91.50
5683;DHT22;2864;49.220;8.654;2023-07-20T06:15:54;19.30;91.30
5683;DHT22;2864;49.220;8.654;2023-07-20T06:18:22;19.40;91.20
5683;DHT22;2864;49.220;8.654;2023-07-20T06:20:49;19.60;90.80
5683;DHT22;2864;49.220;8.654;2023-07-20T06:23:15;19.70;90.80
5683;DHT22;2864;49.220;8.654;2023-07-20T06:25:40;19.80;90.10
5683;DHT22;2864;49.220;8.654;2023-07-20T06:28:06;19.90;89.10
5683;DHT22;2864;49.220;8.654;2023-07-20T06:30:33;19.80;89.20
5683;DHT22;2864;49.220;8.654;2023-07-20T06:32:59;20.10;89.20
5683;DHT22;2864;49.220;8.654;2023-07-20T06:35:25;20.40;89.20
5683;DHT22;2864;49.220;8.654;2023-07-20T06:37:51;20.70;88.00
5683;DHT22;2864;49.220;8.654;2023-07-20T06:40:17;20.70;86.70
5683;DHT22;2864;49.220;8.654;2023-07-20T06:42:43;20.60;86.70
5683;DHT22;2864;49.220;8.654;2023-07-20T06:45:09;20.50;85.50
5683;DHT22;2864;49.220;8.654;2023-07-20T06:47:35;20.30;86.20
5683;DHT22;2864;49.220;8.654;2023-07-20T06:50:00;20.20;86.90
5683;DHT22;2864;49.220;8.654;2023-07-20T06:52:26;20.00;86.60
5683;DHT22;2864;49.220;8.654;2023-07-20T06:54:52;20.10;86.90
5683;DHT22;2864;49.220;8.654;2023-07-20T06:57:17;20.20;87.00
5683;DHT22;2864;49.220;8.654;2023-07-20T06:59:43;20.20;86.50
5683;DHT22;2864;49.220;8.654;2023-07-20T07:02:08;20.10;87.00
5683;DHT22;2864;49.220;8.654;2023-07-20T07:04:34;20.30;86.90
5683;DHT22;2864;49.220;8.654;2023-07-20T07:06:59;20.40;86.40
5683;DHT22;2864;49.220;8.654;2023-07-20T07:09:25;20.40;86.60
5683;DHT22;2864;49.220;8.654;2023-07-20T07:11:51;20.10;86.30
5683;DHT22;2864;49.220;8.654;2023-07-20T07:14:19;20.00;86.30
5683;DHT22;2864;49.220;8.654;2023-07-20T07:16:45;19.80;86.40
5683;DHT22;2864;49.220;8.654;2023-07-20T07:19:11;19.80;86.90
5683;DHT22;2864;49.220;8.654;2023-07-20T07:21:36;19.70;87.40
5683;DHT22;2864;49.220;8.654;2023-07-20T07:24:02;19.80;87.30
5683;DHT22;2864;49.220;8.654;2023-07-20T07:26:27;19.80;87.50
5683;DHT22;2864;49.220;8.654;2023-07-20T07:28:53;19.80;87.70
5683;DHT22;2864;49.220;8.654;2023-07-20T07:31:18;19.80;87.90
5683;DHT22;2864;49.220;8.654;2023-07-20T07:33:44;19.80;88.30
5683;DHT22;2864;49.220;8.654;2023-07-20T07:36:09;20.00;88.80
5683;DHT22;2864;49.220;8.654;2023-07-20T07:38:35;20.10;89.10
5683;DHT22;2864;49.220;8.654;2023-07-20T07:41:00;20.30;88.60
5683;DHT22;2864;49.220;8.654;2023-07-20T07:43:26;20.50;87.50
5683;DHT22;2864;49.220;8.654;2023-07-20T07:45:54;20.50;87.60
5683;DHT22;2864;49.220;8.654;2023-07-20T07:48:19;20.70;87.10
5683;DHT22;2864;49.220;8.654;2023-07-20T07:50:46;20.60;86.50
5683;DHT22;2864;49.220;8.654;2023-07-20T07:53:12;20.70;86.60
5683;DHT22;2864;49.220;8.654;2023-07-20T07:55:38;21.00;86.10
5683;DHT22;2864;49.220;8.654;2023-07-20T07:58:03;21.30;83.40
5683;DHT22;2864;49.220;8.654;2023-07-20T08:00:29;21.40;81.20
5683;DHT22;2864;49.220;8.654;2023-07-20T08:02:54;21.60;80.10
5683;DHT22;2864;49.220;8.654;2023-07-20T08:05:20;21.90;79.90
5683;DHT22;2864;49.220;8.654;2023-07-20T08:07:45;22.00;79.70
5683;DHT22;2864;49.220;8.654;2023-07-20T08:10:11;22.00;78.20
5683;DHT22;2864;49.220;8.654;2023-07-20T08:12:37;22.40;78.30
5683;DHT22;2864;49.220;8.654;2023-07-20T08:15:03;22.50;78.00
5683;DHT22;2864;49.220;8.654;2023-07-20T08:17:29;21.90;78.50
5683;DHT22;2864;49.220;8.654;2023-07-20T08:19:54;22.20;77.30
5683;DHT22;2864;49.220;8.654;2023-07-20T08:22:20;22.20;75.10
5683;DHT22;2864;49.220;8.654;2023-07-20T08:24:46;22.30;74.10
5683;DHT22;2864;49.220;8.654;2023-07-20T08:27:13;21.70;73.80
5683;DHT22;2864;49.220;8.654;2023-07-20T08:29:38;21.70;72.90
5683;DHT22;2864;49.220;8.654;2023-07-20T08:32:05;22.60;74.50
5683;DHT22;2864;49.220;8.654;2023-07-20T08:34:31;21.90;73.60
5683;DHT22;2864;49.220;8.654;2023-07-20T08:36:58;21.80;74.30
5683;DHT22;2864;49.220;8.654;2023-07-20T08:39:24;21.70;73.90
5683;DHT22;2864;49.220;8.654;2023-07-20T08:41:50;22.00;74.40
5683;DHT22;2864;49.220;8.654;2023-07-20T08:44:17;22.40;73.90
5683;DHT22;2864;49.220;8.654;2023-07-20T08:46:44;22.30;73.80
5683;DHT22;2864;49.220;8.654;2023-07-20T08:49:11;22.40;74.60
5683;DHT22;2864;49.220;8.654;2023-07-20T08:51:37;22.10;74.30
5683;DHT22;2864;49.220;8.654;2023-07-20T08:54:03;22.10;74.90
5683;DHT22;2864;49.220;8.654;2023-07-20T08:56:31;22.30;74.20
5683;DHT22;2864;49.220;8.654;2023-07-20T08:58:59;22.40;74.10
5683;DHT22;2864;49.220;8.654;2023-07-20T09:01:27;22.60;74.10
5683;DHT22;2864;49.220;8.654;2023-07-20T09:03:53;22.90;73.80
5683;DHT22;2864;49.220;8.654;2023-07-20T09:06:19;23.20;72.50
5683;DHT22;2864;49.220;8.654;2023-07-20T09:08:45;23.50;73.50
5683;DHT22;2864;49.220;8.654;2023-07-20T09:11:12;23.90;74.40
5683;DHT22;2864;49.220;8.654;2023-07-20T09:13:38;22.60;72.50
5683;DHT22;2864;49.220;8.654;2023-07-20T09:16:04;23.00;71.50
5683;DHT22;2864;49.220;8.654;2023-07-20T09:18:31;22.50;69.80
5683;DHT22;2864;49.220;8.654;2023-07-20T09:20:58;22.60;70.60
5683;DHT22;2864;49.220;8.654;2023-07-20T09:23:34;23.10;70.80
5683;DHT22;2864;49.220;8.654;2023-07-20T09:26:01;23.70;69.20
5683;DHT22;2864;49.220;8.654;2023-07-20T09:28:42;24.10;67.80
5683;DHT22;2864;49.220;8.654;2023-07-20T09:31:16;24.20;67.00
5683;DHT22;2864;49.220;8.654;2023-07-20T09:33:42;23.80;67.50
5683;DHT22;2864;49.220;8.654;2023-07-20T09:36:09;23.90;67.20
5683;DHT22;2864;49.220;8.654;2023-07-20T09:38:37;24.40;67.10
5683;DHT22;2864;49.220;8.654;2023-07-20T09:41:05;24.60;65.90
5683;DHT22;2864;49.220;8.654;2023-07-20T09:43:32;24.90;65.60
5683;DHT22;2864;49.220;8.654;2023-07-20T09:45:59;24.90;65.20
5683;DHT22;2864;49.220;8.654;2023-07-20T09:48:25;24.80;66.60
5683;DHT22;2864;49.220;8.654;2023-07-20T09:51:02;24.20;65.70
5683;DHT22;2864;49.220;8.654;2023-07-20T09:53:28;24.30;66.80
5683;DHT22;2864;49.220;8.654;2023-07-20T09:55:55;27.00;68.60
5683;DHT22;2864;49.220;8.654;2023-07-20T09:58:21;24.90;66.60
5683;DHT22;2864;49.220;8.654;2023-07-20T10:00:48;25.50;62.70
5683;DHT22;2864;49.220;8.654;2023-07-20T10:03:22;25.60;63.00
5683;DHT22;2864;49.220;8.654;2023-07-20T10:05:52;25.70;62.40
5683;DHT22;2864;49.220;8.654;2023-07-20T10:08:20;25.70;63.30
5683;DHT22;2864;49.220;8.654;2023-07-20T10:10:48;25.50;64.40
5683;DHT22;2864;49.220;8.654;2023-07-20T10:13:18;25.80;64.90
5683;DHT22;2864;49.220;8.654;2023-07-20T10:15:47;25.10;61.80
5683;DHT22;2864;49.220;8.654;2023-07-20T10:18:59;25.10;60.60
5683;DHT22;2864;49.220;8.654;2023-07-20T10:21:27;25.40;60.90
5683;DHT22;2864;49.220;8.654;2023-07-20T10:23:56;25.50;62.50
5683;DHT22;2864;49.220;8.654;2023-07-20T10:26:22;25.70;62.00
5683;DHT22;2864;49.220;8.654;2023-07-20T10:28:49;25.00;62.40
5683;DHT22;2864;49.220;8.654;2023-07-20T10:31:15;25.40;63.10
5683;DHT22;2864;49.220;8.654;2023-07-20T10:33:41;25.90;61.30
5683;DHT22;2864;49.220;8.654;2023-07-20T10:36:07;25.50;61.30
5683;DHT22;2864;49.220;8.654;2023-07-20T10:41:33;25.90;59.60
5683;DHT22;2864;49.220;8.654;2023-07-20T10:44:04;26.10;59.30
5683;DHT22;2864;49.220;8.654;2023-07-20T10:49:09;25.10;60.00
5683;DHT22;2864;49.220;8.654;2023-07-20T10:51:46;25.50;60.30
5683;DHT22;2864;49.220;8.654;2023-07-20T10:56:48;26.50;59.10
5683;DHT22;2864;49.220;8.654;2023-07-20T10:59:42;26.90;59.10
5683;DHT22;2864;49.220;8.654;2023-07-20T11:02:07;27.30;58.20
5683;DHT22;2864;49.220;8.654;2023-07-20T11:04:43;27.00;57.90
5683;DHT22;2864;49.220;8.654;2023-07-20T11:07:09;27.10;57.70
5683;DHT22;2864;49.220;8.654;2023-07-20T11:09:36;26.80;57.60
5683;DHT22;2864;49.220;8.654;2023-07-20T11:12:20;26.20;58.10
5683;DHT22;2864;49.220;8.654;2023-07-20T11:14:56;26.50;58.10
5683;DHT22;2864;49.220;8.654;2023-07-20T11:17:32;27.30;58.10
5683;DHT22;2864;49.220;8.654;2023-07-20T11:19:58;27.80;58.00
5683;DHT22;2864;49.220;8.654;2023-07-20T11:22:26;27.70;56.90
5683;DHT22;2864;49.220;8.654;2023-07-20T11:24:55;27.40;57.50
5683;DHT22;2864;49.220;8.654;2023-07-20T11:27:21;27.30;57.50
5683;DHT22;2864;49.220;8.654;2023-07-20T11:29:48;27.00;57.40
5683;DHT22;2864;49.220;8.654;2023-07-20T11:32:20;26.90;57.40
5683;DHT22;2864;49.220;8.654;2023-07-20T11:34:47;26.20;57.10
5683;DHT22;2864;49.220;8.654;2023-07-20T11:37:13;26.70;56.70
5683;DHT22;2864;49.220;8.654;2023-07-20T11:39:39;27.10;56.30
5683;DHT22;2864;49.220;8.654;2023-07-20T11:42:05;27.10;55.90
5683;DHT22;2864;49.220;8.654;2023-07-20T11:44:32;27.10;56.20
5683;DHT22;2864;49.220;8.654;2023-07-20T11:47:07;26.90;56.50
5683;DHT22;2864;49.220;8.654;2023-07-20T11:49:40;27.40;56.90
5683;DHT22;2864;49.220;8.654;2023-07-20T11:52:07;27.60;57.00
5683;DHT22;2864;49.220;8.654;2023-07-20T11:54:34;28.10;56.00
5683;DHT22;2864;49.220;8.654;2023-07-20T11:57:01;28.20;55.40
5683;DHT22;2864;49.220;8.654;2023-07-20T11:59:27;28.20;53.50
5683;DHT22;2864;49.220;8.654;2023-07-20T12:01:52;28.00;54.40
5683;DHT22;2864;49.220;8.654;2023-07-20T12:04:18;27.90;55.00
5683;DHT22;2864;49.220;8.654;2023-07-20T12:06:45;27.70;54.40
5683;DHT22;2864;49.220;8.654;2023-07-20T12:09:14;27.70;54.70
5683;DHT22;2864;49.220;8.654;2023-07-20T12:11:43;27.10;55.20
5683;DHT22;2864;49.220;8.654;2023-07-20T12:14:09;26.80;56.30
5683;DHT22;2864;49.220;8.654;2023-07-20T12:16:36;26.80;56.20
5683;DHT22;2864;49.220;8.654;2023-07-20T12:19:06;26.90;55.60
5683;DHT22;2864;49.220;8.654;2023-07-20T12:21:34;27.50;55.60
5683;DHT22;2864;49.220;8.654;2023-07-20T12:24:00;30.50;56.00
5683;DHT22;2864;49.220;8.654;2023-07-20T12:26:29;27.80;54.20
5683;DHT22;2864;49.220;8.654;2023-07-20T12:28:55;28.10;54.70
5683;DHT22;2864;49.220;8.654;2023-07-20T12:31:21;27.60;55.20
5683;DHT22;2864;49.220;8.654;2023-07-20T12:33:48;27.40;54.90
5683;DHT22;2864;49.220;8.654;2023-07-20T12:36:14;26.90;53.50
5683;DHT22;2864;49.220;8.654;2023-07-20T12:38:40;26.90;53.90
5683;DHT22;2864;49.220;8.654;2023-07-20T12:41:07;27.70;53.40
5683;DHT22;2864;49.220;8.654;2023-07-20T12:43:32;28.40;53.00
5683;DHT22;2864;49.220;8.654;2023-07-20T12:45:58;29.10;52.20
5683;DHT22;2864;49.220;8.654;2023-07-20T12:48:24;29.90;52.60
5683;DHT22;2864;49.220;8.654;2023-07-20T12:50:50;29.60;51.50
5683;DHT22;2864;49.220;8.654;2023-07-20T12:53:16;30.00;50.70
5683;DHT22;2864;49.220;8.654;2023-07-20T12:55:42;30.30;50.60
5683;DHT22;2864;49.220;8.654;2023-07-20T12:58:08;30.60;50.10
5683;DHT22;2864;49.220;8.654;2023-07-20T13:00:34;30.80;50.40
5683;DHT22;2864;49.220;8.654;2023-07-20T13:02:59;30.80;51.00
5683;DHT22;2864;49.220;8.654;2023-07-20T13:05:25;31.00;50.70
5683;DHT22;2864;49.220;8.654;2023-07-20T13:07:51;31.40;50.50
5683;DHT22;2864;49.220;8.654;2023-07-20T13:10:16;31.20;50.30
5683;DHT22;2864;49.220;8.654;2023-07-20T13:12:42;30.30;48.90
5683;DHT22;2864;49.220;8.654;2023-07-20T13:15:10;32.50;49.40
5683;DHT22;2864;49.220;8.654;2023-07-20T13:17:37;32.70;48.30
5683;DHT22;2864;49.220;8.654;2023-07-20T13:20:05;32.20;49.00
5683;DHT22;2864;49.220;8.654;2023-07-20T13:22:31;33.00;48.90
5683;DHT22;2864;49.220;8.654;2023-07-20T13:24:57;33.40;48.00
5683;DHT22;2864;49.220;8.654;2023-07-20T13:27:22;33.60;47.50
5683;DHT22;2864;49.220;8.654;2023-07-20T13:29:48;34.40;47.20
5683;DHT22;2864;49.220;8.654;2023-07-20T13:32:14;35.00;46.50
5683;DHT22;2864;49.220;8.654;2023-07-20T13:34:40;36.00;45.50
5683;DHT22;2864;49.220;8.654;2023-07-20T13:37:06;36.20;45.50
5683;DHT22;2864;49.220;8.654;2023-07-20T13:39:32;36.60;46.30
5683;DHT22;2864;49.220;8.654;2023-07-20T13:41:57;35.30;45.70
5683;DHT22;2864;49.220;8.654;2023-07-20T13:44:23;35.20;45.90
5683;DHT22;2864;49.220;8.654;2023-07-20T13:46:49;35.50;45.70
5683;DHT22;2864;49.220;8.654;2023-07-20T13:49:15;35.60;45.20
5683;DHT22;2864;49.220;8.654;2023-07-20T13:51:43;34.60;45.40
5683;DHT22;2864;49.220;8.654;2023-07-20T13:54:09;35.30;45.70
5683;DHT22;2864;49.220;8.654;2023-07-20T13:56:35;36.10;45.40
5683;DHT22;2864;49.220;8.654;2023-07-20T13:59:01;35.70;45.60
5683;DHT22;2864;49.220;8.654;2023-07-20T14:01:27;35.10;45.20
5683;DHT22;2864;49.220;8.654;2023-07-20T14:03:54;35.80;45.50
5683;DHT22;2864;49.220;8.654;2023-07-20T14:06:19;33.00;45.40
5683;DHT22;2864;49.220;8.654;2023-07-20T14:08:45;33.60;44.80
5683;DHT22;2864;49.220;8.654;2023-07-20T14:11:12;34.30;44.00
5683;DHT22;2864;49.220;8.654;2023-07-20T14:13:38;31.40;45.90
5683;DHT22;2864;49.220;8.654;2023-07-20T14:16:04;32.20;47.10
5683;DHT22;2864;49.220;8.654;2023-07-20T14:18:30;31.20;47.50
5683;DHT22;2864;49.220;8.654;2023-07-20T14:20:55;31.50;48.90
5683;DHT22;2864;49.220;8.654;2023-07-20T14:23:21;30.00;48.60
5683;DHT22;2864;49.220;8.654;2023-07-20T14:25:48;30.60;48.80
5683;DHT22;2864;49.220;8.654;2023-07-20T14:28:13;33.60;47.10
5683;DHT22;2864;49.220;8.654;2023-07-20T14:30:39;33.70;47.10
5683;DHT22;2864;49.220;8.654;2023-07-20T14:33:05;35.60;46.80
5683;DHT22;2864;49.220;8.654;2023-07-20T14:35:31;35.90;45.70
5683;DHT22;2864;49.220;8.654;2023-07-20T14:37:56;35.90;46.00
5683;DHT22;2864;49.220;8.654;2023-07-20T14:40:22;36.40;45.60
5683;DHT22;2864;49.220;8.654;2023-07-20T14:42:47;36.60;45.70
5683;DHT22;2864;49.220;8.654;2023-07-20T14:45:13;37.30;44.70
5683;DHT22;2864;49.220;8.654;2023-07-20T14:47:39;36.10;44.30
5683;DHT22;2864;49.220;8.654;2023-07-20T14:50:06;37.90;43.90
5683;DHT22;2864;49.220;8.654;2023-07-20T14:52:31;37.60;44.00
5683;DHT22;2864;49.220;8.654;2023-07-20T14:54:57;38.10;43.40
5683;DHT22;2864;49.220;8.654;2023-07-20T14:57:22;38.00;43.40
5683;DHT22;2864;49.220;8.654;2023-07-20T14:59:52;39.20;42.40
5683;DHT22;2864;49.220;8.654;2023-07-20T15:02:18;39.40;42.50
5683;DHT22;2864;49.220;8.654;2023-07-20T15:04:51;38.60;43.50
5683;DHT22;2864;49.220;8.654;2023-07-20T15:07:20;38.10;42.90
5683;DHT22;2864;49.220;8.654;2023-07-20T15:09:46;37.70;43.50
5683;DHT22;2864;49.220;8.654;2023-07-20T15:12:12;37.00;43.30
5683;DHT22;2864;49.220;8.654;2023-07-20T15:14:42;37.00;43.50
5683;DHT22;2864;49.220;8.654;2023-07-20T15:17:09;36.00;44.00
5683;DHT22;2864;49.220;8.654;2023-07-20T15:19:34;35.90;45.30
5683;DHT22;2864;49.220;8.654;2023-07-20T15:22:01;34.90;44.70
5683;DHT22;2864;49.220;8.654;2023-07-20T15:24:28;35.00;44.60
5683;DHT22;2864;49.220;8.654;2023-07-20T15:26:54;35.60;44.20
5683;DHT22;2864;49.220;8.654;2023-07-20T15:29:19;36.30;44.20
5683;DHT22;2864;49.220;8.654;2023-07-20T15:31:46;38.10;43.60
5683;DHT22;2864;49.220;8.654;2023-07-20T15:34:12;38.90;42.90
5683;DHT22;2864;49.220;8.654;2023-07-20T15:36:39;37.20;42.80
5683;DHT22;2864;49.220;8.654;2023-07-20T15:39:06;35.20;43.50
5683;DHT22;2864;49.220;8.654;2023-07-20T15:41:31;35.30;43.50
5683;DHT22;2864;49.220;8.654;2023-07-20T15:43:58;35.50;44.30
5683;DHT22;2864;49.220;8.654;2023-07-20T15:49:04;35.30;44.10
5683;DHT22;2864;49.220;8.654;2023-07-20T15:51:29;33.60;44.80
5683;DHT22;2864;49.220;8.654;2023-07-20T15:53:55;32.20;45.20
5683;DHT22;2864;49.220;8.654;2023-07-20T15:56:21;31.30;45.50
5683;DHT22;2864;49.220;8.654;2023-07-20T15:58:47;30.70;46.50
5683;DHT22;2864;49.220;8.654;2023-07-20T16:01:12;32.30;45.50
5683;DHT22;2864;49.220;8.654;2023-07-20T16:03:38;32.20;45.50
5683;DHT22;2864;49.220;8.654;2023-07-20T16:06:04;31.60;46.20
5683;DHT22;2864;49.220;8.654;2023-07-20T16:08:30;32.00;46.00
5683;DHT22;2864;49.220;8.654;2023-07-20T16:10:56;31.60;46.30
5683;DHT22;2864;49.220;8.654;2023-07-20T16:13:23;30.90;46.30
5683;DHT22;2864;49.220;8.654;2023-07-20T16:15:52;31.10;46.60
5683;DHT22;2864;49.220;8.654;2023-07-20T16:18:18;30.30;46.60
5683;DHT22;2864;49.220;8.654;2023-07-20T16:20:43;30.10;47.10